createdAt,value
2023-02-06T00:01:49.405Z,1.00
2023-02-06T00:04:18.039Z,0.90
2023-02-06T00:06:46.986Z,1.05
2023-02-06T00:09:15.719Z,0.95
2023-02-06T00:11:45.670Z,1.00
2023-02-06T00:14:14.275Z,0.90
2023-02-06T00:16:42.867Z,0.75
2023-02-06T00:19:11.426Z,0.85
2023-02-06T00:21:40.019Z,1.00
2023-02-06T00:24:09.213Z,0.90
2023-02-06T00:26:37.822Z,0.95
2023-02-06T00:29:07.748Z,0.77
2023-02-06T00:31:36.388Z,1.43
2023-02-06T00:34:05.056Z,1.10
2023-02-06T00:36:34.776Z,0.88
2023-02-06T00:39:03.377Z,1.00
2023-02-06T00:41:32.031Z,1.05
2023-02-06T00:44:00.604Z,0.90
2023-02-06T00:46:32.704Z,0.77
2023-02-06T00:49:01.378Z,1.00
2023-02-06T00:51:30.058Z,0.80
2023-02-06T00:53:58.647Z,0.90
2023-02-06T00:56:27.266Z,0.98
2023-02-06T00:58:55.816Z,0.80
2023-02-06T01:01:26.408Z,0.70
2023-02-06T01:03:56.525Z,0.90
2023-02-06T01:06:25.130Z,1.00
2023-02-06T01:08:53.942Z,1.00
2023-02-06T01:11:25.102Z,1.00
2023-02-06T01:13:54.320Z,0.88
2023-02-06T01:16:25.187Z,0.90
2023-02-06T01:18:55.489Z,0.90
2023-02-06T01:21:25.993Z,0.70
2023-02-06T01:23:56.231Z,0.80
2023-02-06T01:26:27.604Z,1.10
2023-02-06T01:28:57.071Z,0.80
2023-02-06T01:31:28.388Z,0.77
2023-02-06T01:34:00.517Z,0.93
2023-02-06T01:36:29.677Z,0.80
2023-02-06T01:38:58.250Z,0.98
2023-02-06T01:41:27.044Z,0.90
2023-02-06T01:44:15.568Z,1.05
2023-02-06T01:46:46.038Z,0.70
2023-02-06T01:49:20.929Z,0.80
2023-02-06T01:51:51.214Z,0.90
2023-02-06T01:54:19.878Z,1.05
2023-02-06T01:56:52.873Z,1.15
2023-02-06T01:59:22.335Z,1.20
2023-02-06T02:01:50.964Z,0.95
2023-02-06T02:04:23.015Z,0.90
2023-02-06T02:07:01.243Z,1.02
2023-02-06T02:09:31.273Z,0.80
2023-02-06T02:11:59.888Z,0.80
2023-02-06T02:14:28.570Z,1.05
2023-02-06T02:17:11.031Z,0.90
2023-02-06T02:20:22.147Z,0.93
2023-02-06T02:23:04.845Z,1.00
2023-02-06T02:26:13.611Z,1.00
2023-02-06T02:29:23.308Z,0.90
2023-02-06T02:32:17.527Z,0.70
2023-02-06T02:35:24.878Z,1.00
2023-02-06T02:38:11.239Z,0.80
2023-02-06T02:40:46.733Z,1.00
2023-02-06T02:43:25.434Z,1.08
2023-02-06T02:46:00.760Z,1.20
2023-02-06T02:48:35.261Z,0.90
2023-02-06T02:51:06.466Z,1.00
2023-02-06T02:53:35.090Z,1.15
2023-02-06T02:56:03.755Z,1.10
2023-02-06T02:58:36.062Z,1.10
2023-02-06T03:01:09.338Z,1.00
2023-02-06T03:03:41.084Z,0.98
2023-02-06T03:06:33.769Z,1.00
2023-02-06T03:09:09.790Z,1.13
2023-02-06T03:11:44.470Z,1.20
2023-02-06T03:14:22.407Z,0.95
2023-02-06T03:16:55.698Z,1.10
2023-02-06T03:19:30.726Z,0.90
2023-02-06T03:22:02.186Z,1.10
2023-02-06T03:24:33.933Z,1.10
2023-02-06T03:27:07.501Z,0.95
2023-02-06T03:29:39.218Z,1.00
2023-02-06T03:32:12.089Z,1.00
2023-02-06T03:34:47.649Z,1.08
2023-02-06T03:37:17.974Z,0.90
2023-02-06T03:39:46.671Z,1.00
2023-02-06T03:42:16.719Z,1.10
2023-02-06T03:44:51.294Z,1.00
2023-02-06T03:47:22.717Z,0.95
2023-02-06T03:49:54.352Z,1.00
2023-02-06T03:52:28.935Z,1.08
2023-02-06T03:55:02.421Z,1.08
2023-02-06T03:57:33.022Z,0.82
2023-02-06T04:00:01.631Z,0.90
2023-02-06T04:02:31.560Z,1.40
2023-02-06T04:05:00.189Z,0.85
2023-02-06T04:07:31.728Z,0.80
2023-02-06T04:10:00.332Z,0.90
2023-02-06T04:12:29.096Z,1.10
2023-02-06T04:14:57.688Z,0.90
2023-02-06T04:17:43.204Z,1.27
2023-02-06T04:20:14.914Z,1.38
2023-02-06T04:22:44.889Z,0.82
2023-02-06T04:25:13.688Z,0.97
2023-02-06T04:27:42.252Z,1.20
2023-02-06T04:30:12.057Z,1.10
2023-02-06T04:32:40.623Z,1.00
2023-02-06T04:35:09.535Z,1.02
2023-02-06T04:37:38.712Z,1.27
2023-02-06T04:40:09.548Z,0.80
2023-02-06T04:42:38.116Z,1.00
2023-02-06T04:45:07.337Z,1.10
2023-02-06T04:47:35.906Z,1.00
2023-02-06T04:50:04.774Z,1.00
2023-02-06T04:52:33.447Z,0.95
2023-02-06T04:55:02.001Z,0.90
2023-02-06T04:57:31.957Z,1.20
2023-02-06T05:00:00.577Z,0.90
2023-02-06T05:02:29.189Z,1.05
2023-02-06T05:04:57.856Z,1.10
2023-02-06T05:07:26.439Z,1.27
2023-02-06T05:09:55.039Z,1.10
2023-02-06T05:12:24.644Z,1.08
2023-02-06T05:14:54.578Z,1.10
2023-02-06T05:17:23.498Z,1.10
2023-02-06T05:19:52.083Z,1.02
2023-02-06T05:22:20.686Z,1.38
2023-02-06T05:24:49.263Z,1.10
2023-02-06T05:27:17.822Z,1.08
2023-02-06T05:29:46.367Z,1.10
2023-02-06T05:32:16.290Z,1.20
2023-02-06T05:34:44.853Z,1.00
2023-02-06T05:37:13.921Z,1.33
2023-02-06T05:39:42.458Z,0.88
2023-02-06T05:42:11.052Z,0.73
2023-02-06T05:44:39.632Z,1.00
2023-02-06T05:47:08.245Z,1.08
2023-02-06T05:49:38.189Z,0.98
2023-02-06T05:52:06.944Z,0.88
2023-02-06T05:54:35.542Z,1.00
2023-02-06T05:57:04.354Z,1.10
2023-02-06T05:59:32.994Z,1.15
2023-02-06T06:02:01.582Z,1.25
2023-02-06T06:04:30.459Z,1.35
2023-02-06T06:07:00.675Z,1.17
2023-02-06T06:09:29.325Z,1.10
2023-02-06T06:11:57.946Z,1.13
2023-02-06T06:14:26.491Z,1.00
2023-02-06T06:16:55.101Z,1.00
2023-02-06T06:19:23.837Z,1.10
2023-02-06T06:21:52.489Z,1.00
2023-02-06T06:24:22.450Z,1.00
2023-02-06T06:26:51.050Z,1.55
2023-02-06T06:29:19.765Z,1.10
2023-02-06T06:31:48.860Z,1.15
2023-02-06T06:34:17.425Z,1.10
2023-02-06T06:36:46.047Z,1.08
2023-02-06T06:39:14.632Z,1.02
2023-02-06T06:41:44.633Z,1.10
2023-02-06T06:44:13.312Z,0.95
2023-02-06T06:46:41.880Z,0.98
2023-02-06T06:49:10.431Z,1.02
2023-02-06T06:51:39.031Z,1.10
2023-02-06T06:54:07.735Z,0.88
2023-02-06T06:56:36.322Z,1.10
2023-02-06T06:59:06.237Z,1.08
2023-02-06T07:01:34.826Z,1.30
2023-02-06T07:04:03.432Z,1.08
2023-02-06T07:06:32.038Z,1.77
2023-02-06T07:09:00.617Z,1.42
2023-02-06T07:11:29.319Z,1.17
2023-02-06T07:13:57.880Z,1.00
2023-02-06T07:16:27.954Z,1.10
2023-02-06T07:18:56.528Z,1.13
2023-02-06T07:21:25.344Z,1.25
2023-02-06T07:23:54.274Z,1.15
2023-02-06T07:26:23.025Z,1.40
2023-02-06T07:28:52.776Z,1.10
2023-02-06T07:31:21.467Z,1.38
2023-02-06T07:33:51.447Z,1.67
2023-02-06T07:36:20.205Z,1.65
2023-02-06T07:38:48.978Z,1.40
2023-02-06T07:41:18.105Z,2.28
2023-02-06T07:43:46.652Z,3.63
2023-02-06T07:46:15.321Z,2.60
2023-02-06T07:48:43.942Z,2.10
2023-02-06T07:51:14.209Z,3.10
2023-02-06T07:53:42.791Z,2.25
2023-02-06T07:56:13.464Z,1.95
2023-02-06T07:58:42.258Z,1.73
2023-02-06T08:01:11.000Z,1.67
2023-02-06T08:03:39.662Z,1.80
2023-02-06T08:06:14.719Z,1.80
2023-02-06T08:08:44.192Z,1.63
2023-02-06T08:11:15.640Z,2.70
2023-02-06T08:13:44.768Z,1.80
2023-02-06T08:16:15.389Z,2.80
2023-02-06T08:18:44.584Z,1.70
2023-02-06T08:21:16.592Z,2.03
2023-02-06T08:23:45.593Z,1.95
2023-02-06T08:26:17.247Z,1.85
2023-02-06T08:28:47.093Z,1.97
2023-02-06T08:31:17.947Z,2.10
2023-02-06T08:33:47.421Z,2.33
2023-02-06T08:36:18.922Z,2.50
2023-02-06T08:38:47.830Z,2.43
2023-02-06T08:41:19.328Z,2.67
2023-02-06T08:43:48.776Z,4.07
2023-02-06T08:46:19.430Z,2.42
2023-02-06T08:48:48.049Z,3.20
2023-02-06T08:51:17.977Z,2.72
2023-02-06T08:53:46.543Z,2.20
2023-02-06T08:56:15.149Z,2.80
2023-02-06T08:58:43.770Z,2.60
2023-02-06T09:01:14.648Z,3.58
2023-02-06T09:03:43.692Z,2.40
2023-02-06T09:06:13.267Z,3.25
2023-02-06T09:08:44.339Z,2.00
2023-02-06T09:11:15.713Z,3.72
2023-02-06T09:13:49.127Z,3.30
2023-02-06T09:16:19.698Z,2.00
2023-02-06T09:18:48.897Z,1.90
2023-02-06T09:21:19.476Z,2.17
2023-02-06T09:23:53.135Z,2.15
2023-02-06T09:26:24.309Z,1.75
2023-02-06T09:28:54.281Z,1.50
2023-02-06T09:31:23.043Z,2.72
2023-02-06T09:33:51.833Z,2.38
2023-02-06T09:36:22.368Z,1.98
2023-02-06T09:38:56.077Z,2.10
2023-02-06T09:41:31.653Z,2.42
2023-02-06T09:44:05.724Z,1.80
2023-02-06T09:46:37.313Z,1.42
2023-02-06T09:49:14.755Z,1.80
2023-02-06T09:51:57.454Z,1.70
2023-02-06T09:54:34.849Z,1.58
2023-02-06T09:57:09.311Z,2.20
2023-02-06T09:59:43.293Z,1.30
2023-02-06T10:02:49.202Z,2.20
2023-02-06T10:05:25.135Z,1.60
2023-02-06T10:08:12.411Z,1.40
2023-02-06T10:10:47.315Z,2.00
2023-02-06T10:13:22.563Z,3.30
2023-02-06T10:15:57.178Z,1.70
2023-02-06T10:18:33.255Z,1.30
2023-02-06T10:21:07.872Z,2.17
2023-02-06T10:23:40.593Z,1.70
2023-02-06T10:26:17.280Z,1.30
2023-02-06T10:28:48.437Z,1.27
2023-02-06T10:31:45.076Z,1.20
2023-02-06T10:34:33.821Z,1.40
2023-02-06T10:37:19.925Z,1.55
2023-02-06T10:40:03.397Z,2.17
2023-02-06T10:42:44.406Z,1.67
2023-02-06T10:45:24.562Z,2.30
2023-02-06T10:47:58.322Z,1.92
2023-02-06T10:50:32.665Z,1.73
2023-02-06T10:53:06.582Z,1.85
2023-02-06T10:55:46.002Z,1.50
2023-02-06T10:58:20.001Z,2.78
2023-02-06T11:00:50.417Z,1.30
2023-02-06T11:03:25.139Z,2.22
2023-02-06T11:05:54.251Z,1.58
2023-02-06T11:08:28.137Z,1.40
2023-02-06T11:10:57.986Z,5.15
2023-02-06T11:13:31.751Z,5.53
2023-02-06T11:16:05.832Z,5.88
2023-02-06T11:18:37.773Z,5.25
2023-02-06T11:21:06.890Z,4.60
2023-02-06T11:23:36.024Z,3.90
2023-02-06T11:26:14.178Z,3.85
2023-02-06T11:28:53.141Z,3.30
2023-02-06T11:31:38.477Z,3.70
2023-02-06T11:34:07.555Z,2.70
2023-02-06T11:36:39.542Z,2.53
2023-02-06T11:39:22.606Z,2.00
2023-02-06T11:42:00.004Z,2.50
2023-02-06T11:44:35.910Z,2.08
2023-02-06T11:47:28.580Z,1.70
2023-02-06T11:49:57.607Z,3.00
2023-02-06T11:52:31.212Z,2.53
2023-02-06T11:55:02.546Z,3.03
2023-02-06T11:57:33.792Z,2.00
2023-02-06T12:00:19.681Z,1.48
2023-02-06T12:02:53.465Z,1.65
2023-02-06T12:05:25.347Z,1.58
2023-02-06T12:08:00.114Z,2.10
2023-02-06T12:10:31.824Z,1.70
2023-02-06T12:13:07.630Z,2.10
2023-02-06T12:15:46.924Z,1.40
2023-02-06T12:18:18.631Z,2.60
2023-02-06T12:20:51.932Z,1.60
2023-02-06T12:23:25.504Z,2.42
2023-02-06T12:25:58.383Z,1.60
2023-02-06T12:28:32.209Z,3.28
2023-02-06T12:31:05.812Z,3.10
2023-02-06T12:33:41.321Z,1.88
2023-02-06T12:36:16.780Z,2.10
2023-02-06T12:38:50.172Z,2.05
2023-02-06T12:41:30.170Z,1.67
2023-02-06T12:44:05.134Z,2.67
2023-02-06T12:46:35.244Z,3.20
2023-02-06T12:49:08.540Z,2.17
2023-02-06T12:51:44.371Z,3.23
2023-02-06T12:54:18.062Z,1.97
2023-02-06T12:56:50.284Z,2.53
2023-02-06T12:59:56.655Z,3.13
2023-02-06T13:02:56.697Z,2.03
2023-02-06T13:05:31.337Z,4.07
2023-02-06T13:08:09.235Z,3.67
2023-02-06T13:10:38.891Z,2.90
2023-02-06T13:13:08.342Z,2.33
2023-02-06T13:15:41.164Z,1.77
2023-02-06T13:18:52.605Z,2.10
2023-02-06T13:21:28.606Z,7.72
2023-02-06T13:24:21.436Z,7.00
2023-02-06T13:27:05.449Z,3.03
2023-02-06T13:29:35.177Z,4.35
2023-02-06T13:32:39.905Z,2.38
2023-02-06T13:35:34.174Z,2.30
2023-02-06T13:38:37.056Z,6.13
2023-02-06T13:41:29.975Z,3.50
2023-02-06T13:44:02.018Z,2.47
2023-02-06T13:46:57.751Z,5.97
2023-02-06T13:49:52.129Z,4.25
2023-02-06T13:52:27.701Z,4.10
2023-02-06T13:55:09.825Z,2.15
2023-02-06T13:58:06.106Z,3.05
2023-02-06T14:00:39.593Z,3.50
2023-02-06T14:03:14.538Z,3.13
2023-02-06T14:05:52.962Z,1.70
2023-02-06T14:08:29.092Z,2.97
2023-02-06T14:11:25.885Z,3.70
2023-02-06T14:14:24.108Z,3.83
2023-02-06T14:17:12.140Z,3.25
2023-02-06T14:19:47.655Z,1.67
2023-02-06T14:22:27.236Z,2.70
2023-02-06T14:25:16.619Z,2.53
2023-02-06T14:28:01.339Z,3.22
2023-02-06T14:30:38.972Z,3.95
2023-02-06T14:33:20.651Z,2.05
2023-02-06T14:36:05.546Z,1.50
2023-02-06T14:38:53.558Z,1.33
2023-02-06T14:41:22.585Z,2.63
2023-02-06T14:43:53.447Z,2.05
2023-02-06T14:46:22.248Z,2.10
2023-02-06T14:48:53.004Z,2.13
2023-02-06T14:51:26.320Z,1.48
2023-02-06T14:53:57.831Z,1.50
2023-02-06T14:56:29.765Z,1.43
2023-02-06T14:59:15.697Z,2.70
2023-02-06T15:01:47.362Z,2.03
2023-02-06T15:04:18.737Z,1.20
2023-02-06T15:06:54.479Z,1.77
2023-02-06T15:09:28.975Z,2.53
2023-02-06T15:11:59.186Z,1.00
2023-02-06T15:14:31.056Z,1.20
2023-02-06T15:17:01.016Z,2.15
2023-02-06T15:19:31.244Z,1.90
2023-02-06T15:22:02.526Z,1.10
2023-02-06T15:24:52.925Z,1.30
2023-02-06T15:27:29.120Z,0.95
2023-02-06T15:29:59.650Z,3.00
2023-02-06T15:32:30.595Z,1.50
2023-02-06T15:35:00.861Z,1.30
2023-02-06T15:37:31.938Z,2.00
2023-02-06T15:40:06.997Z,1.63
2023-02-06T15:42:36.809Z,0.80
2023-02-06T15:45:08.684Z,0.85
2023-02-06T15:47:38.198Z,1.83
2023-02-06T15:50:12.022Z,1.10
2023-02-06T15:52:43.295Z,1.70
2023-02-06T15:55:28.677Z,1.05
2023-02-06T15:57:59.581Z,1.15
2023-02-06T16:00:33.635Z,1.00
2023-02-06T16:03:05.156Z,2.47
2023-02-06T16:05:36.367Z,0.80
2023-02-06T16:08:06.433Z,1.00
2023-02-06T16:10:38.793Z,1.58
2023-02-06T16:13:12.248Z,1.33
2023-02-06T16:16:01.783Z,1.87
2023-02-06T16:18:33.619Z,2.10
2023-02-06T16:21:39.872Z,2.53
2023-02-06T16:24:17.736Z,1.52
2023-02-06T16:26:48.217Z,1.30
2023-02-06T16:29:26.527Z,1.83
2023-02-06T16:32:02.165Z,1.50
2023-02-06T16:34:38.591Z,1.08
2023-02-06T16:37:12.174Z,1.05
2023-02-06T16:39:42.401Z,1.42
2023-02-06T16:42:16.017Z,1.25
2023-02-06T16:44:48.142Z,0.90
2023-02-06T16:47:21.842Z,1.40
2023-02-06T16:49:51.120Z,1.48
2023-02-06T16:52:22.982Z,1.05
2023-02-06T16:54:51.952Z,1.02
2023-02-06T16:57:29.233Z,1.13
2023-02-06T16:59:58.311Z,2.30
2023-02-06T17:02:29.402Z,0.80
2023-02-06T17:04:58.189Z,0.90
2023-02-06T17:07:30.348Z,1.30
2023-02-06T17:10:00.766Z,1.83
2023-02-06T17:12:30.873Z,0.98
2023-02-06T17:14:59.481Z,1.10
2023-02-06T17:17:29.418Z,1.00
2023-02-06T17:19:58.420Z,1.20
2023-02-06T17:22:27.001Z,1.15
2023-02-06T17:24:55.593Z,1.00
2023-02-06T17:27:24.296Z,0.90
2023-02-06T17:29:53.868Z,0.90
2023-02-06T17:32:23.023Z,0.90
2023-02-06T17:34:58.211Z,0.98
2023-02-06T17:37:26.759Z,0.63
2023-02-06T17:39:55.334Z,1.00
2023-02-06T17:42:25.653Z,0.90
2023-02-06T17:44:54.259Z,0.82
2023-02-06T17:47:22.795Z,0.80
2023-02-06T17:49:52.903Z,1.00
2023-02-06T17:52:21.477Z,0.70
2023-02-06T17:54:50.144Z,0.93
2023-02-06T17:57:18.737Z,1.23
2023-02-06T17:59:47.334Z,1.37
2023-02-06T18:02:16.098Z,1.35
2023-02-06T18:04:44.704Z,0.80
2023-02-06T18:07:14.621Z,1.00
2023-02-06T18:09:43.209Z,1.00
2023-02-06T18:12:12.015Z,0.80
2023-02-06T18:14:40.729Z,0.85
2023-02-06T18:17:10.103Z,0.80
2023-02-06T18:19:42.392Z,1.00
2023-02-06T18:22:14.393Z,0.90
2023-02-06T18:24:43.515Z,0.95
2023-02-06T18:27:12.710Z,0.93
2023-02-06T18:29:49.860Z,1.13
2023-02-06T18:32:20.004Z,0.90
2023-02-06T18:34:49.006Z,0.90
2023-02-06T18:37:18.944Z,0.93
2023-02-06T18:39:47.656Z,1.03
2023-02-06T18:42:33.704Z,1.10
2023-02-06T18:45:04.158Z,1.00
2023-02-06T18:47:32.904Z,1.70
2023-02-06T18:50:01.578Z,1.30
2023-02-06T18:52:31.529Z,1.30
2023-02-06T18:55:00.131Z,1.50
2023-02-06T18:57:28.816Z,1.35
2023-02-06T18:59:57.440Z,1.60
2023-02-06T19:02:26.006Z,1.50
2023-02-06T19:04:55.256Z,1.50
2023-02-06T19:07:23.813Z,2.90
2023-02-06T19:09:57.541Z,1.40
2023-02-06T19:12:28.076Z,1.40
2023-02-06T19:14:57.139Z,1.25
2023-02-06T19:17:27.209Z,1.30
2023-02-06T19:19:55.854Z,1.50
2023-02-06T19:22:24.926Z,1.50
2023-02-06T19:24:56.377Z,1.30
2023-02-06T19:27:26.195Z,1.30
2023-02-06T19:29:54.923Z,1.50
2023-02-06T19:32:26.050Z,1.90
2023-02-06T19:34:54.646Z,1.45
2023-02-06T19:37:23.430Z,1.50
2023-02-06T19:39:52.056Z,1.30
2023-02-06T19:42:21.991Z,1.70
2023-02-06T19:44:54.020Z,1.40
2023-02-06T19:47:23.094Z,1.25
2023-02-06T19:49:52.890Z,1.40
2023-02-06T19:52:21.932Z,1.30
2023-02-06T19:54:50.510Z,1.42
2023-02-06T19:57:19.458Z,1.55
2023-02-06T19:59:49.402Z,1.60
2023-02-06T20:02:18.194Z,1.40
2023-02-06T20:04:47.213Z,1.55
2023-02-06T20:07:15.849Z,1.30
2023-02-06T20:09:44.560Z,1.40
2023-02-06T20:12:13.583Z,1.30
2023-02-06T20:14:42.252Z,1.50
2023-02-06T20:17:12.262Z,1.48
2023-02-06T20:19:40.813Z,1.48
2023-02-06T20:22:09.530Z,1.40
2023-02-06T20:24:38.124Z,1.70
2023-02-06T20:27:08.560Z,1.50
2023-02-06T20:29:39.347Z,1.60
2023-02-06T20:32:09.017Z,1.60
2023-02-06T20:34:38.958Z,1.35
2023-02-06T20:37:07.525Z,1.50
2023-02-06T20:39:36.105Z,1.60
2023-02-06T20:42:04.810Z,1.40
2023-02-06T20:44:33.426Z,1.52
2023-02-06T20:47:02.170Z,2.10
2023-02-06T20:49:31.646Z,2.03
2023-02-06T20:52:03.370Z,2.00
2023-02-06T20:54:31.934Z,1.60
2023-02-06T20:57:01.291Z,1.67
2023-02-06T20:59:30.481Z,1.38
2023-02-06T21:01:59.518Z,1.48
2023-02-06T21:04:28.139Z,1.50
2023-02-06T21:06:56.797Z,1.50
2023-02-06T21:09:26.832Z,1.30
2023-02-06T21:11:55.695Z,1.52
2023-02-06T21:14:25.404Z,1.50
2023-02-06T21:16:54.007Z,1.27
2023-02-06T21:19:23.389Z,1.50
2023-02-06T21:21:52.047Z,1.40
2023-02-06T21:24:20.810Z,1.30
2023-02-06T21:26:50.762Z,1.40
2023-02-06T21:29:19.617Z,1.67
2023-02-06T21:31:48.220Z,1.35
2023-02-06T21:34:18.537Z,1.40
2023-02-06T21:36:48.214Z,1.60
2023-02-06T21:39:19.446Z,1.80
2023-02-06T21:41:51.801Z,1.38
2023-02-06T21:44:20.436Z,1.50
2023-02-06T21:46:49.272Z,2.40
2023-02-06T21:49:18.222Z,2.17
2023-02-06T21:51:46.828Z,2.75
2023-02-06T21:54:15.355Z,2.42
2023-02-06T21:56:44.498Z,2.33
2023-02-06T21:59:14.760Z,2.22
2023-02-06T22:01:43.561Z,2.17
2023-02-06T22:04:12.726Z,1.75
2023-02-06T22:06:41.835Z,2.08
2023-02-06T22:09:15.223Z,1.88
2023-02-06T22:11:44.882Z,2.90
2023-02-06T22:14:17.065Z,1.50
2023-02-06T22:16:47.203Z,1.60
2023-02-06T22:19:16.969Z,1.60
2023-02-06T22:21:45.878Z,2.00
2023-02-06T22:24:14.941Z,2.75
2023-02-06T22:26:44.017Z,2.07
2023-02-06T22:29:15.630Z,2.42
2023-02-06T22:31:45.134Z,1.98
2023-02-06T22:34:17.310Z,1.73
2023-02-06T22:36:46.139Z,1.38
2023-02-06T22:39:16.436Z,1.70
2023-02-06T22:41:46.843Z,1.50
2023-02-06T22:44:18.086Z,1.60
2023-02-06T22:46:48.554Z,1.63
2023-02-06T22:49:17.984Z,1.70
2023-02-06T22:51:47.345Z,1.70
2023-02-06T22:54:16.523Z,1.77
2023-02-06T22:56:45.611Z,1.80
2023-02-06T22:59:17.970Z,1.85
2023-02-06T23:01:48.510Z,1.60
2023-02-06T23:04:18.612Z,1.90
2023-02-06T23:06:47.795Z,1.90
2023-02-06T23:09:19.207Z,1.70
2023-02-06T23:11:48.720Z,2.00
2023-02-06T23:14:19.954Z,1.60
2023-02-06T23:16:49.512Z,2.20
2023-02-06T23:19:19.404Z,1.83
2023-02-06T23:21:49.964Z,2.20
2023-02-06T23:24:19.327Z,1.80
2023-02-06T23:26:49.738Z,1.60
2023-02-06T23:29:22.995Z,1.80
2023-02-06T23:31:52.700Z,2.30
2023-02-06T23:34:24.205Z,1.50
2023-02-06T23:36:56.596Z,1.90
2023-02-06T23:39:26.996Z,1.75
2023-02-06T23:41:55.634Z,1.90
2023-02-06T23:44:25.576Z,2.60
2023-02-06T23:46:54.158Z,2.20
2023-02-06T23:49:22.770Z,1.60
2023-02-06T23:51:51.355Z,1.80
2023-02-06T23:54:19.894Z,1.50
2023-02-06T23:56:48.489Z,1.40
2023-02-06T23:59:17.103Z,1.52
